Aviation Digital Data Service (ADDS)

Output produced by METARs form (1147 UTC 24 May 2016)
found at http://www.aviationweather.gov/adds/metars/
 
KDOV 241058Z AUTO 25006KT 10SM FEW110 15/15 A2991 RMK AO2 SLP132 T01480148 VISNO RWY19 CHINO RWY19 $
TAF KDOV 240800Z 2408/2514 25006KT 9999 FEW030 BKN070 QNH2989INS 
     BECMG 2503/2504 25006KT 9999 SKC QNH3002INS TX24/2420Z TN13/2409Z